sensor_id;sensor_type;location;lat;lon;timestamp;P1;durP1;ratioP1;P2;durP2;ratioP2
67227;SDS011;54139;42.616;23.748;2023-03-14T00:01:12;3.20;;;2.80;;
67227;SDS011;54139;42.616;23.748;2023-03-14T00:03:40;3.55;;;3.25;;
67227;SDS011;54139;42.616;23.748;2023-03-14T00:06:06;4.80;;;2.95;;
67227;SDS011;54139;42.616;23.748;2023-03-14T00:08:32;5.05;;;3.10;;
67227;SDS011;54139;42.616;23.748;2023-03-14T00:11:10;3.33;;;2.90;;
67227;SDS011;54139;42.616;23.748;2023-03-14T00:13:37;3.47;;;3.00;;
67227;SDS011;54139;42.616;23.748;2023-03-14T00:16:03;3.70;;;3.30;;
67227;SDS011;54139;42.616;23.748;2023-03-14T00:18:33;4.05;;;3.25;;
67227;SDS011;54139;42.616;23.748;2023-03-14T00:20:59;4.25;;;3.00;;
67227;SDS011;54139;42.616;23.748;2023-03-14T00:23:26;5.28;;;3.60;;
67227;SDS011;54139;42.616;23.748;2023-03-14T00:25:52;4.30;;;3.85;;
67227;SDS011;54139;42.616;23.748;2023-03-14T00:28:17;3.95;;;3.55;;
67227;SDS011;54139;42.616;23.748;2023-03-14T00:30:43;4.10;;;3.45;;
67227;SDS011;54139;42.616;23.748;2023-03-14T00:33:08;5.53;;;3.38;;
67227;SDS011;54139;42.616;23.748;2023-03-14T00:35:34;6.45;;;3.80;;
67227;SDS011;54139;42.616;23.748;2023-03-14T00:37:59;4.15;;;3.53;;
67227;SDS011;54139;42.616;23.748;2023-03-14T00:40:24;5.20;;;3.38;;
67227;SDS011;54139;42.616;23.748;2023-03-14T00:42:50;4.88;;;3.90;;
67227;SDS011;54139;42.616;23.748;2023-03-14T00:45:15;4.63;;;3.15;;
67227;SDS011;54139;42.616;23.748;2023-03-14T00:47:40;3.83;;;3.28;;
67227;SDS011;54139;42.616;23.748;2023-03-14T00:50:10;5.60;;;4.10;;
67227;SDS011;54139;42.616;23.748;2023-03-14T00:52:36;3.67;;;3.33;;
67227;SDS011;54139;42.616;23.748;2023-03-14T00:55:02;5.07;;;3.55;;
67227;SDS011;54139;42.616;23.748;2023-03-14T00:57:27;7.43;;;4.00;;
67227;SDS011;54139;42.616;23.748;2023-03-14T00:59:53;4.80;;;3.88;;
67227;SDS011;54139;42.616;23.748;2023-03-14T01:02:18;5.22;;;3.90;;
67227;SDS011;54139;42.616;23.748;2023-03-14T01:04:44;5.22;;;3.58;;
67227;SDS011;54139;42.616;23.748;2023-03-14T01:07:09;7.03;;;3.38;;
67227;SDS011;54139;42.616;23.748;2023-03-14T01:09:34;3.85;;;3.55;;
67227;SDS011;54139;42.616;23.748;2023-03-14T01:12:00;3.58;;;3.20;;
67227;SDS011;54139;42.616;23.748;2023-03-14T01:14:25;5.05;;;3.40;;
67227;SDS011;54139;42.616;23.748;2023-03-14T01:16:51;3.58;;;2.55;;
67227;SDS011;54139;42.616;23.748;2023-03-14T01:19:16;5.05;;;2.75;;
67227;SDS011;54139;42.616;23.748;2023-03-14T01:21:42;3.30;;;3.00;;
67227;SDS011;54139;42.616;23.748;2023-03-14T01:24:09;3.75;;;2.80;;
67227;SDS011;54139;42.616;23.748;2023-03-14T01:26:37;4.07;;;3.08;;
67227;SDS011;54139;42.616;23.748;2023-03-14T01:29:03;4.18;;;3.70;;
67227;SDS011;54139;42.616;23.748;2023-03-14T01:31:29;11.60;;;5.32;;
67227;SDS011;54139;42.616;23.748;2023-03-14T01:33:56;6.75;;;5.00;;
67227;SDS011;54139;42.616;23.748;2023-03-14T01:36:21;4.97;;;4.57;;
67227;SDS011;54139;42.616;23.748;2023-03-14T01:38:47;6.38;;;5.10;;
67227;SDS011;54139;42.616;23.748;2023-03-14T01:41:14;5.97;;;4.85;;
67227;SDS011;54139;42.616;23.748;2023-03-14T01:43:45;7.25;;;4.80;;
67227;SDS011;54139;42.616;23.748;2023-03-14T01:46:18;6.22;;;5.32;;
67227;SDS011;54139;42.616;23.748;2023-03-14T01:48:55;6.03;;;5.47;;
67227;SDS011;54139;42.616;23.748;2023-03-14T01:51:35;5.32;;;4.03;;
67227;SDS011;54139;42.616;23.748;2023-03-14T01:54:10;5.32;;;4.70;;
67227;SDS011;54139;42.616;23.748;2023-03-14T01:56:40;8.43;;;5.18;;
67227;SDS011;54139;42.616;23.748;2023-03-14T01:59:07;6.40;;;5.13;;
67227;SDS011;54139;42.616;23.748;2023-03-14T02:01:33;6.93;;;4.95;;
67227;SDS011;54139;42.616;23.748;2023-03-14T02:04:00;5.65;;;4.53;;
67227;SDS011;54139;42.616;23.748;2023-03-14T02:06:29;9.15;;;4.90;;
67227;SDS011;54139;42.616;23.748;2023-03-14T02:08:59;7.82;;;4.30;;
67227;SDS011;54139;42.616;23.748;2023-03-14T02:11:26;7.03;;;5.10;;
67227;SDS011;54139;42.616;23.748;2023-03-14T02:13:55;4.53;;;3.92;;
67227;SDS011;54139;42.616;23.748;2023-03-14T02:16:21;4.53;;;4.13;;
67227;SDS011;54139;42.616;23.748;2023-03-14T02:18:47;4.03;;;3.63;;
67227;SDS011;54139;42.616;23.748;2023-03-14T02:23:58;5.85;;;3.30;;
67227;SDS011;54139;42.616;23.748;2023-03-14T02:26:34;4.75;;;3.38;;
67227;SDS011;54139;42.616;23.748;2023-03-14T02:29:02;4.32;;;3.05;;
67227;SDS011;54139;42.616;23.748;2023-03-14T02:31:28;3.10;;;2.80;;
67227;SDS011;54139;42.616;23.748;2023-03-14T02:33:53;3.65;;;2.80;;
67227;SDS011;54139;42.616;23.748;2023-03-14T02:36:19;6.03;;;2.75;;
67227;SDS011;54139;42.616;23.748;2023-03-14T02:41:20;4.10;;;3.13;;
67227;SDS011;54139;42.616;23.748;2023-03-14T02:43:45;3.72;;;2.97;;
67227;SDS011;54139;42.616;23.748;2023-03-14T02:46:11;3.65;;;3.05;;
67227;SDS011;54139;42.616;23.748;2023-03-14T02:48:55;3.67;;;2.80;;
67227;SDS011;54139;42.616;23.748;2023-03-14T02:51:24;4.07;;;2.80;;
67227;SDS011;54139;42.616;23.748;2023-03-14T02:53:51;4.75;;;3.00;;
67227;SDS011;54139;42.616;23.748;2023-03-14T02:56:16;5.30;;;2.92;;
67227;SDS011;54139;42.616;23.748;2023-03-14T02:58:41;2.83;;;2.60;;
67227;SDS011;54139;42.616;23.748;2023-03-14T03:01:07;3.50;;;3.20;;
67227;SDS011;54139;42.616;23.748;2023-03-14T03:03:32;3.38;;;3.05;;
67227;SDS011;54139;42.616;23.748;2023-03-14T03:05:58;4.22;;;3.25;;
67227;SDS011;54139;42.616;23.748;2023-03-14T03:08:24;4.72;;;3.40;;
67227;SDS011;54139;42.616;23.748;2023-03-14T03:10:51;3.85;;;2.90;;
67227;SDS011;54139;42.616;23.748;2023-03-14T03:13:17;3.92;;;3.03;;
67227;SDS011;54139;42.616;23.748;2023-03-14T03:15:43;4.78;;;3.00;;
67227;SDS011;54139;42.616;23.748;2023-03-14T03:18:08;4.53;;;3.33;;
67227;SDS011;54139;42.616;23.748;2023-03-14T03:20:34;4.18;;;3.05;;
67227;SDS011;54139;42.616;23.748;2023-03-14T03:22:59;4.10;;;3.15;;
67227;SDS011;54139;42.616;23.748;2023-03-14T03:25:25;5.43;;;2.45;;
67227;SDS011;54139;42.616;23.748;2023-03-14T03:27:51;4.57;;;2.80;;
67227;SDS011;54139;42.616;23.748;2023-03-14T03:30:19;4.13;;;3.15;;
67227;SDS011;54139;42.616;23.748;2023-03-14T03:32:44;5.65;;;3.83;;
67227;SDS011;54139;42.616;23.748;2023-03-14T03:35:10;6.20;;;4.68;;
67227;SDS011;54139;42.616;23.748;2023-03-14T03:37:35;4.55;;;4.07;;
67227;SDS011;54139;42.616;23.748;2023-03-14T03:40:01;4.07;;;3.63;;
67227;SDS011;54139;42.616;23.748;2023-03-14T03:42:29;6.53;;;3.72;;
67227;SDS011;54139;42.616;23.748;2023-03-14T03:44:55;5.30;;;4.40;;
67227;SDS011;54139;42.616;23.748;2023-03-14T03:47:20;7.43;;;6.47;;
67227;SDS011;54139;42.616;23.748;2023-03-14T03:49:45;4.70;;;4.10;;
67227;SDS011;54139;42.616;23.748;2023-03-14T03:52:11;6.85;;;4.03;;
67227;SDS011;54139;42.616;23.748;2023-03-14T03:54:36;7.32;;;4.47;;
67227;SDS011;54139;42.616;23.748;2023-03-14T03:57:02;6.97;;;4.05;;
67227;SDS011;54139;42.616;23.748;2023-03-14T03:59:27;4.45;;;4.05;;
67227;SDS011;54139;42.616;23.748;2023-03-14T04:01:53;6.03;;;4.38;;
67227;SDS011;54139;42.616;23.748;2023-03-14T04:04:18;4.70;;;4.30;;
67227;SDS011;54139;42.616;23.748;2023-03-14T04:06:43;5.20;;;4.28;;
67227;SDS011;54139;42.616;23.748;2023-03-14T04:09:09;4.43;;;3.78;;
67227;SDS011;54139;42.616;23.748;2023-03-14T04:11:35;4.38;;;3.40;;
67227;SDS011;54139;42.616;23.748;2023-03-14T04:14:00;4.35;;;3.58;;
67227;SDS011;54139;42.616;23.748;2023-03-14T04:16:26;5.85;;;3.83;;
67227;SDS011;54139;42.616;23.748;2023-03-14T04:18:52;4.60;;;3.08;;
67227;SDS011;54139;42.616;23.748;2023-03-14T04:21:17;3.35;;;3.05;;
67227;SDS011;54139;42.616;23.748;2023-03-14T04:23:43;3.08;;;2.78;;
67227;SDS011;54139;42.616;23.748;2023-03-14T04:26:08;5.25;;;3.22;;
67227;SDS011;54139;42.616;23.748;2023-03-14T04:28:34;6.28;;;3.13;;
67227;SDS011;54139;42.616;23.748;2023-03-14T04:31:12;4.93;;;3.03;;
67227;SDS011;54139;42.616;23.748;2023-03-14T04:33:39;4.57;;;3.63;;
67227;SDS011;54139;42.616;23.748;2023-03-14T04:36:05;4.20;;;3.20;;
67227;SDS011;54139;42.616;23.748;2023-03-14T04:38:32;5.50;;;3.15;;
67227;SDS011;54139;42.616;23.748;2023-03-14T04:40:58;3.45;;;2.88;;
67227;SDS011;54139;42.616;23.748;2023-03-14T04:43:24;5.95;;;3.10;;
67227;SDS011;54139;42.616;23.748;2023-03-14T04:45:50;7.10;;;3.30;;
67227;SDS011;54139;42.616;23.748;2023-03-14T04:48:16;4.95;;;3.13;;
67227;SDS011;54139;42.616;23.748;2023-03-14T04:50:42;6.82;;;3.28;;
67227;SDS011;54139;42.616;23.748;2023-03-14T04:53:07;4.07;;;3.53;;
67227;SDS011;54139;42.616;23.748;2023-03-14T04:55:33;11.38;;;3.75;;
67227;SDS011;54139;42.616;23.748;2023-03-14T04:57:59;4.97;;;3.83;;
67227;SDS011;54139;42.616;23.748;2023-03-14T05:00:25;3.47;;;2.95;;
67227;SDS011;54139;42.616;23.748;2023-03-14T05:02:50;5.25;;;3.38;;
67227;SDS011;54139;42.616;23.748;2023-03-14T05:05:16;3.88;;;2.85;;
67227;SDS011;54139;42.616;23.748;2023-03-14T05:07:41;5.03;;;3.50;;
67227;SDS011;54139;42.616;23.748;2023-03-14T05:10:07;5.47;;;3.28;;
67227;SDS011;54139;42.616;23.748;2023-03-14T05:12:33;3.95;;;3.42;;
67227;SDS011;54139;42.616;23.748;2023-03-14T05:14:58;5.10;;;3.50;;
67227;SDS011;54139;42.616;23.748;2023-03-14T05:17:23;3.70;;;3.40;;
67227;SDS011;54139;42.616;23.748;2023-03-14T05:19:49;4.70;;;3.65;;
67227;SDS011;54139;42.616;23.748;2023-03-14T05:22:14;4.03;;;3.67;;
67227;SDS011;54139;42.616;23.748;2023-03-14T05:24:40;5.15;;;3.58;;
67227;SDS011;54139;42.616;23.748;2023-03-14T05:27:05;3.28;;;2.97;;
67227;SDS011;54139;42.616;23.748;2023-03-14T05:29:30;5.05;;;2.72;;
67227;SDS011;54139;42.616;23.748;2023-03-14T05:31:56;4.10;;;2.70;;
67227;SDS011;54139;42.616;23.748;2023-03-14T05:34:21;15.68;;;2.17;;
67227;SDS011;54139;42.616;23.748;2023-03-14T05:36:47;3.55;;;2.33;;
67227;SDS011;54139;42.616;23.748;2023-03-14T05:39:12;12.40;;;2.45;;
67227;SDS011;54139;42.616;23.748;2023-03-14T05:41:37;7.93;;;1.85;;
67227;SDS011;54139;42.616;23.748;2023-03-14T05:44:03;9.25;;;2.80;;
67227;SDS011;54139;42.616;23.748;2023-03-14T05:46:28;4.45;;;3.13;;
67227;SDS011;54139;42.616;23.748;2023-03-14T05:48:57;3.83;;;3.22;;
67227;SDS011;54139;42.616;23.748;2023-03-14T05:51:23;3.75;;;3.45;;
67227;SDS011;54139;42.616;23.748;2023-03-14T05:53:49;2.85;;;2.55;;
67227;SDS011;54139;42.616;23.748;2023-03-14T05:56:14;2.80;;;2.22;;
67227;SDS011;54139;42.616;23.748;2023-03-14T05:58:40;3.30;;;1.48;;
67227;SDS011;54139;42.616;23.748;2023-03-14T06:01:06;4.15;;;1.60;;
67227;SDS011;54139;42.616;23.748;2023-03-14T06:03:32;2.35;;;1.33;;
67227;SDS011;54139;42.616;23.748;2023-03-14T06:05:57;4.60;;;1.58;;
67227;SDS011;54139;42.616;23.748;2023-03-14T06:08:23;1.30;;;1.20;;
67227;SDS011;54139;42.616;23.748;2023-03-14T06:10:49;1.30;;;1.08;;
67227;SDS011;54139;42.616;23.748;2023-03-14T06:13:16;1.38;;;1.25;;
67227;SDS011;54139;42.616;23.748;2023-03-14T06:15:41;1.63;;;1.38;;
67227;SDS011;54139;42.616;23.748;2023-03-14T06:18:07;2.08;;;1.40;;
67227;SDS011;54139;42.616;23.748;2023-03-14T06:20:35;2.63;;;1.20;;
67227;SDS011;54139;42.616;23.748;2023-03-14T06:23:01;2.33;;;2.13;;
67227;SDS011;54139;42.616;23.748;2023-03-14T06:25:27;1.30;;;1.17;;
67227;SDS011;54139;42.616;23.748;2023-03-14T06:27:52;2.17;;;1.60;;
67227;SDS011;54139;42.616;23.748;2023-03-14T06:30:17;1.63;;;1.52;;
67227;SDS011;54139;42.616;23.748;2023-03-14T06:32:43;2.83;;;1.85;;
67227;SDS011;54139;42.616;23.748;2023-03-14T06:35:09;2.08;;;1.85;;
67227;SDS011;54139;42.616;23.748;2023-03-14T06:37:34;1.50;;;1.40;;
67227;SDS011;54139;42.616;23.748;2023-03-14T06:39:59;4.60;;;2.10;;
67227;SDS011;54139;42.616;23.748;2023-03-14T06:42:25;2.08;;;1.88;;
67227;SDS011;54139;42.616;23.748;2023-03-14T06:44:50;1.65;;;1.55;;
67227;SDS011;54139;42.616;23.748;2023-03-14T06:47:16;2.38;;;1.60;;
67227;SDS011;54139;42.616;23.748;2023-03-14T06:49:41;1.70;;;1.58;;
67227;SDS011;54139;42.616;23.748;2023-03-14T06:52:07;2.08;;;1.67;;
67227;SDS011;54139;42.616;23.748;2023-03-14T06:54:32;1.70;;;1.60;;
67227;SDS011;54139;42.616;23.748;2023-03-14T06:56:58;1.65;;;1.33;;
67227;SDS011;54139;42.616;23.748;2023-03-14T06:59:23;3.78;;;1.65;;
67227;SDS011;54139;42.616;23.748;2023-03-14T07:01:48;3.58;;;1.70;;
67227;SDS011;54139;42.616;23.748;2023-03-14T07:04:15;2.00;;;1.42;;
67227;SDS011;54139;42.616;23.748;2023-03-14T07:06:41;2.15;;;1.60;;
67227;SDS011;54139;42.616;23.748;2023-03-14T07:09:09;3.28;;;1.60;;
67227;SDS011;54139;42.616;23.748;2023-03-14T07:11:38;1.67;;;1.58;;
67227;SDS011;54139;42.616;23.748;2023-03-14T07:14:04;2.78;;;1.60;;
67227;SDS011;54139;42.616;23.748;2023-03-14T07:16:29;1.52;;;1.30;;
67227;SDS011;54139;42.616;23.748;2023-03-14T07:18:57;3.33;;;1.45;;
67227;SDS011;54139;42.616;23.748;2023-03-14T07:21:23;2.22;;;1.63;;
67227;SDS011;54139;42.616;23.748;2023-03-14T07:23:49;1.85;;;1.70;;
67227;SDS011;54139;42.616;23.748;2023-03-14T07:26:14;2.67;;;1.50;;
67227;SDS011;54139;42.616;23.748;2023-03-14T07:28:40;1.88;;;1.58;;
67227;SDS011;54139;42.616;23.748;2023-03-14T07:31:06;1.98;;;1.23;;
67227;SDS011;54139;42.616;23.748;2023-03-14T07:33:32;3.95;;;1.70;;
67227;SDS011;54139;42.616;23.748;2023-03-14T07:35:57;1.50;;;1.40;;
67227;SDS011;54139;42.616;23.748;2023-03-14T07:38:24;2.10;;;1.52;;
67227;SDS011;54139;42.616;23.748;2023-03-14T07:40:49;1.85;;;1.63;;
67227;SDS011;54139;42.616;23.748;2023-03-14T07:43:15;1.85;;;1.58;;
67227;SDS011;54139;42.616;23.748;2023-03-14T07:45:41;1.80;;;1.70;;
67227;SDS011;54139;42.616;23.748;2023-03-14T07:48:06;2.58;;;1.67;;
67227;SDS011;54139;42.616;23.748;2023-03-14T07:50:32;2.55;;;2.30;;
67227;SDS011;54139;42.616;23.748;2023-03-14T07:52:57;2.90;;;2.00;;
67227;SDS011;54139;42.616;23.748;2023-03-14T07:55:22;6.75;;;2.20;;
67227;SDS011;54139;42.616;23.748;2023-03-14T07:57:48;3.15;;;1.98;;
67227;SDS011;54139;42.616;23.748;2023-03-14T08:00:13;2.47;;;1.80;;
67227;SDS011;54139;42.616;23.748;2023-03-14T08:02:42;2.17;;;1.85;;
67227;SDS011;54139;42.616;23.748;2023-03-14T08:05:08;1.90;;;1.70;;
67227;SDS011;54139;42.616;23.748;2023-03-14T08:07:34;3.50;;;1.83;;
67227;SDS011;54139;42.616;23.748;2023-03-14T08:09:59;1.80;;;1.70;;
67227;SDS011;54139;42.616;23.748;2023-03-14T08:12:25;2.33;;;1.90;;
67227;SDS011;54139;42.616;23.748;2023-03-14T08:14:50;4.40;;;1.80;;
67227;SDS011;54139;42.616;23.748;2023-03-14T08:17:16;2.28;;;1.50;;
67227;SDS011;54139;42.616;23.748;2023-03-14T08:19:41;1.77;;;1.67;;
67227;SDS011;54139;42.616;23.748;2023-03-14T08:22:08;2.33;;;1.92;;
67227;SDS011;54139;42.616;23.748;2023-03-14T08:24:34;1.70;;;1.58;;
67227;SDS011;54139;42.616;23.748;2023-03-14T08:27:00;2.00;;;1.80;;
67227;SDS011;54139;42.616;23.748;2023-03-14T08:29:25;2.08;;;1.88;;
67227;SDS011;54139;42.616;23.748;2023-03-14T08:31:51;3.97;;;1.90;;
67227;SDS011;54139;42.616;23.748;2023-03-14T08:34:16;2.15;;;1.70;;
67227;SDS011;54139;42.616;23.748;2023-03-14T08:36:42;3.63;;;1.58;;
67227;SDS011;54139;42.616;23.748;2023-03-14T08:39:07;1.80;;;1.70;;
67227;SDS011;54139;42.616;23.748;2023-03-14T08:41:33;2.72;;;1.77;;
67227;SDS011;54139;42.616;23.748;2023-03-14T08:44:05;2.33;;;1.70;;
67227;SDS011;54139;42.616;23.748;2023-03-14T08:46:31;3.97;;;2.05;;
67227;SDS011;54139;42.616;23.748;2023-03-14T08:48:56;2.60;;;1.90;;
67227;SDS011;54139;42.616;23.748;2023-03-14T08:51:21;4.55;;;2.53;;
67227;SDS011;54139;42.616;23.748;2023-03-14T08:53:47;3.60;;;1.83;;
67227;SDS011;54139;42.616;23.748;2023-03-14T08:56:12;1.55;;;1.45;;
67227;SDS011;54139;42.616;23.748;2023-03-14T08:58:38;3.10;;;1.75;;
67227;SDS011;54139;42.616;23.748;2023-03-14T09:01:04;3.95;;;2.05;;
67227;SDS011;54139;42.616;23.748;2023-03-14T09:03:30;3.35;;;1.92;;
67227;SDS011;54139;42.616;23.748;2023-03-14T09:06:00;6.30;;;1.92;;
67227;SDS011;54139;42.616;23.748;2023-03-14T09:08:28;2.40;;;2.20;;
67227;SDS011;54139;42.616;23.748;2023-03-14T09:10:53;2.28;;;1.92;;
67227;SDS011;54139;42.616;23.748;2023-03-14T09:13:19;2.33;;;1.90;;
67227;SDS011;54139;42.616;23.748;2023-03-14T09:15:44;3.38;;;1.83;;
67227;SDS011;54139;42.616;23.748;2023-03-14T09:18:11;2.17;;;1.63;;
67227;SDS011;54139;42.616;23.748;2023-03-14T09:20:36;2.72;;;2.00;;
67227;SDS011;54139;42.616;23.748;2023-03-14T09:23:02;6.65;;;2.10;;
67227;SDS011;54139;42.616;23.748;2023-03-14T09:25:27;2.10;;;1.70;;
67227;SDS011;54139;42.616;23.748;2023-03-14T09:27:53;6.13;;;2.55;;
67227;SDS011;54139;42.616;23.748;2023-03-14T09:30:18;3.10;;;1.65;;
67227;SDS011;54139;42.616;23.748;2023-03-14T09:32:43;2.20;;;2.00;;
67227;SDS011;54139;42.616;23.748;2023-03-14T09:35:09;5.57;;;2.60;;
67227;SDS011;54139;42.616;23.748;2023-03-14T09:37:34;2.83;;;2.30;;
67227;SDS011;54139;42.616;23.748;2023-03-14T09:40:00;2.30;;;2.10;;
67227;SDS011;54139;42.616;23.748;2023-03-14T09:42:26;3.35;;;2.20;;
67227;SDS011;54139;42.616;23.748;2023-03-14T09:44:56;2.85;;;2.03;;
67227;SDS011;54139;42.616;23.748;2023-03-14T09:47:24;2.42;;;1.92;;
67227;SDS011;54139;42.616;23.748;2023-03-14T09:49:50;4.10;;;2.22;;
67227;SDS011;54139;42.616;23.748;2023-03-14T09:54:49;2.20;;;2.00;;
67227;SDS011;54139;42.616;23.748;2023-03-14T09:57:17;5.10;;;2.58;;
67227;SDS011;54139;42.616;23.748;2023-03-14T09:59:45;3.33;;;2.88;;
67227;SDS011;54139;42.616;23.748;2023-03-14T10:02:16;3.55;;;2.60;;
67227;SDS011;54139;42.616;23.748;2023-03-14T10:04:44;2.72;;;2.20;;
67227;SDS011;54139;42.616;23.748;2023-03-14T10:07:15;2.97;;;2.00;;
67227;SDS011;54139;42.616;23.748;2023-03-14T10:09:45;3.78;;;2.53;;
67227;SDS011;54139;42.616;23.748;2023-03-14T10:12:12;4.40;;;2.30;;
67227;SDS011;54139;42.616;23.748;2023-03-14T10:14:44;6.45;;;1.80;;
67227;SDS011;54139;42.616;23.748;2023-03-14T10:17:15;2.05;;;1.83;;
67227;SDS011;54139;42.616;23.748;2023-03-14T10:22:24;2.50;;;1.42;;
67227;SDS011;54139;42.616;23.748;2023-03-14T10:24:52;2.75;;;1.75;;
67227;SDS011;54139;42.616;23.748;2023-03-14T10:27:27;4.20;;;1.50;;
67227;SDS011;54139;42.616;23.748;2023-03-14T10:30:07;5.32;;;2.75;;
67227;SDS011;54139;42.616;23.748;2023-03-14T10:32:39;10.20;;;2.22;;
67227;SDS011;54139;42.616;23.748;2023-03-14T10:37:49;4.13;;;2.15;;
67227;SDS011;54139;42.616;23.748;2023-03-14T10:40:30;2.20;;;1.50;;
67227;SDS011;54139;42.616;23.748;2023-03-14T10:42:57;1.75;;;1.42;;
67227;SDS011;54139;42.616;23.748;2023-03-14T10:48:21;2.90;;;0.90;;
67227;SDS011;54139;42.616;23.748;2023-03-14T10:51:05;2.33;;;1.05;;
67227;SDS011;54139;42.616;23.748;2023-03-14T10:54:19;0.98;;;0.80;;
67227;SDS011;54139;42.616;23.748;2023-03-14T10:56:36;2.30;;;1.33;;
67227;SDS011;54139;42.616;23.748;2023-03-14T10:59:01;1.05;;;0.80;;
67227;SDS011;54139;42.616;23.748;2023-03-14T11:04:45;1.70;;;1.13;;
67227;SDS011;54139;42.616;23.748;2023-03-14T11:15:01;1.40;;;1.25;;
67227;SDS011;54139;42.616;23.748;2023-03-14T11:17:40;1.08;;;1.00;;
67227;SDS011;54139;42.616;23.748;2023-03-14T11:20:15;1.58;;;1.10;;
67227;SDS011;54139;42.616;23.748;2023-03-14T11:22:48;1.83;;;1.15;;
67227;SDS011;54139;42.616;23.748;2023-03-14T11:28:02;1.58;;;1.30;;
67227;SDS011;54139;42.616;23.748;2023-03-14T11:30:53;2.20;;;1.23;;
67227;SDS011;54139;42.616;23.748;2023-03-14T11:33:39;2.63;;;1.08;;
67227;SDS011;54139;42.616;23.748;2023-03-14T11:36:09;2.17;;;1.00;;
67227;SDS011;54139;42.616;23.748;2023-03-14T11:38:46;1.92;;;1.10;;
67227;SDS011;54139;42.616;23.748;2023-03-14T11:41:17;2.08;;;0.77;;
67227;SDS011;54139;42.616;23.748;2023-03-14T11:43:47;2.03;;;0.90;;
67227;SDS011;54139;42.616;23.748;2023-03-14T11:51:15;0.80;;;0.80;;
67227;SDS011;54139;42.616;23.748;2023-03-14T11:53:58;2.17;;;1.02;;
67227;SDS011;54139;42.616;23.748;2023-03-14T11:56:50;1.60;;;1.38;;
67227;SDS011;54139;42.616;23.748;2023-03-14T11:59:27;1.30;;;1.13;;
67227;SDS011;54139;42.616;23.748;2023-03-14T12:02:05;1.63;;;1.10;;
67227;SDS011;54139;42.616;23.748;2023-03-14T12:04:41;0.88;;;0.63;;
67227;SDS011;54139;42.616;23.748;2023-03-14T12:10:03;1.08;;;0.90;;
67227;SDS011;54139;42.616;23.748;2023-03-14T12:12:28;0.90;;;0.77;;
67227;SDS011;54139;42.616;23.748;2023-03-14T12:14:55;1.35;;;0.98;;
67227;SDS011;54139;42.616;23.748;2023-03-14T12:17:36;1.50;;;0.90;;
67227;SDS011;54139;42.616;23.748;2023-03-14T12:20:17;1.65;;;1.15;;
67227;SDS011;54139;42.616;23.748;2023-03-14T12:22:51;1.83;;;0.98;;
67227;SDS011;54139;42.616;23.748;2023-03-14T12:25:22;1.63;;;0.82;;
67227;SDS011;54139;42.616;23.748;2023-03-14T12:35:38;2.20;;;1.00;;
67227;SDS011;54139;42.616;23.748;2023-03-14T12:38:23;1.00;;;0.90;;
67227;SDS011;54139;42.616;23.748;2023-03-14T12:43:42;1.60;;;0.93;;
67227;SDS011;54139;42.616;23.748;2023-03-14T12:46:09;1.40;;;1.10;;
67227;SDS011;54139;42.616;23.748;2023-03-14T12:48:42;1.23;;;0.73;;
67227;SDS011;54139;42.616;23.748;2023-03-14T12:51:13;2.83;;;1.08;;
67227;SDS011;54139;42.616;23.748;2023-03-14T12:53:54;1.30;;;1.00;;
67227;SDS011;54139;42.616;23.748;2023-03-14T12:57:26;7.07;;;1.50;;
67227;SDS011;54139;42.616;23.748;2023-03-14T13:04:33;1.98;;;1.23;;
67227;SDS011;54139;42.616;23.748;2023-03-14T13:07:01;2.65;;;1.33;;
67227;SDS011;54139;42.616;23.748;2023-03-14T13:11:54;0.98;;;0.90;;
67227;SDS011;54139;42.616;23.748;2023-03-14T13:14:20;1.80;;;1.00;;
67227;SDS011;54139;42.616;23.748;2023-03-14T13:16:49;1.88;;;1.27;;
67227;SDS011;54139;42.616;23.748;2023-03-14T13:19:25;1.35;;;1.17;;
67227;SDS011;54139;42.616;23.748;2023-03-14T13:21:56;1.08;;;0.98;;
67227;SDS011;54139;42.616;23.748;2023-03-14T13:24:25;1.63;;;1.10;;
67227;SDS011;54139;42.616;23.748;2023-03-14T13:26:52;3.10;;;1.20;;
67227;SDS011;54139;42.616;23.748;2023-03-14T13:31:45;1.42;;;0.90;;
67227;SDS011;54139;42.616;23.748;2023-03-14T13:34:11;5.25;;;1.15;;
67227;SDS011;54139;42.616;23.748;2023-03-14T13:36:37;1.27;;;1.08;;
67227;SDS011;54139;42.616;23.748;2023-03-14T13:39:02;1.33;;;1.10;;
67227;SDS011;54139;42.616;23.748;2023-03-14T13:41:29;1.30;;;1.20;;
67227;SDS011;54139;42.616;23.748;2023-03-14T13:44:00;2.25;;;1.10;;
67227;SDS011;54139;42.616;23.748;2023-03-14T13:46:29;2.08;;;1.02;;
67227;SDS011;54139;42.616;23.748;2023-03-14T13:48:56;2.17;;;1.40;;
67227;SDS011;54139;42.616;23.748;2023-03-14T13:51:23;1.98;;;1.20;;
67227;SDS011;54139;42.616;23.748;2023-03-14T13:53:54;1.42;;;0.80;;
67227;SDS011;54139;42.616;23.748;2023-03-14T13:56:21;1.55;;;1.35;;
67227;SDS011;54139;42.616;23.748;2023-03-14T13:58:48;5.78;;;1.42;;
67227;SDS011;54139;42.616;23.748;2023-03-14T14:03:41;3.90;;;1.58;;
67227;SDS011;54139;42.616;23.748;2023-03-14T14:06:10;3.10;;;1.30;;
67227;SDS011;54139;42.616;23.748;2023-03-14T14:08:42;2.22;;;1.80;;
67227;SDS011;54139;42.616;23.748;2023-03-14T14:11:08;2.13;;;1.55;;
67227;SDS011;54139;42.616;23.748;2023-03-14T14:13:39;2.10;;;1.92;;
67227;SDS011;54139;42.616;23.748;2023-03-14T14:16:04;2.55;;;2.20;;
67227;SDS011;54139;42.616;23.748;2023-03-14T14:18:30;2.63;;;2.42;;
67227;SDS011;54139;42.616;23.748;2023-03-14T14:20:56;3.42;;;2.53;;
67227;SDS011;54139;42.616;23.748;2023-03-14T14:23:22;4.57;;;1.77;;
67227;SDS011;54139;42.616;23.748;2023-03-14T14:25:51;2.05;;;1.73;;
67227;SDS011;54139;42.616;23.748;2023-03-14T14:28:28;2.35;;;1.58;;
67227;SDS011;54139;42.616;23.748;2023-03-14T14:31:00;2.47;;;1.92;;
67227;SDS011;54139;42.616;23.748;2023-03-14T14:33:38;2.08;;;1.70;;
67227;SDS011;54139;42.616;23.748;2023-03-14T14:36:05;2.45;;;1.85;;
67227;SDS011;54139;42.616;23.748;2023-03-14T14:38:42;4.75;;;2.17;;
67227;SDS011;54139;42.616;23.748;2023-03-14T14:41:10;3.88;;;2.10;;
67227;SDS011;54139;42.616;23.748;2023-03-14T14:43:39;2.08;;;1.88;;
67227;SDS011;54139;42.616;23.748;2023-03-14T14:46:06;2.80;;;2.45;;
67227;SDS011;54139;42.616;23.748;2023-03-14T14:48:35;2.90;;;2.60;;
67227;SDS011;54139;42.616;23.748;2023-03-14T14:51:03;2.55;;;2.35;;
67227;SDS011;54139;42.616;23.748;2023-03-14T14:53:34;2.97;;;2.67;;
67227;SDS011;54139;42.616;23.748;2023-03-14T14:56:14;3.30;;;2.75;;
67227;SDS011;54139;42.616;23.748;2023-03-14T14:58:43;2.50;;;2.30;;
67227;SDS011;54139;42.616;23.748;2023-03-14T15:01:20;3.07;;;2.77;;
67227;SDS011;54139;42.616;23.748;2023-03-14T15:03:48;3.60;;;2.58;;
67227;SDS011;54139;42.616;23.748;2023-03-14T15:06:16;3.10;;;2.45;;
67227;SDS011;54139;42.616;23.748;2023-03-14T15:08:42;3.13;;;2.90;;
67227;SDS011;54139;42.616;23.748;2023-03-14T15:11:09;3.20;;;3.00;;
67227;SDS011;54139;42.616;23.748;2023-03-14T15:13:40;3.25;;;2.80;;
67227;SDS011;54139;42.616;23.748;2023-03-14T15:16:08;5.18;;;3.35;;
67227;SDS011;54139;42.616;23.748;2023-03-14T15:18:35;4.00;;;3.38;;
67227;SDS011;54139;42.616;23.748;2023-03-14T15:21:01;4.97;;;2.88;;
67227;SDS011;54139;42.616;23.748;2023-03-14T15:23:26;2.85;;;2.42;;
67227;SDS011;54139;42.616;23.748;2023-03-14T15:25:51;3.80;;;3.40;;
67227;SDS011;54139;42.616;23.748;2023-03-14T15:30:48;4.25;;;2.55;;
67227;SDS011;54139;42.616;23.748;2023-03-14T15:33:15;3.08;;;2.80;;
67227;SDS011;54139;42.616;23.748;2023-03-14T15:35:41;3.83;;;2.70;;
67227;SDS011;54139;42.616;23.748;2023-03-14T15:38:13;4.60;;;3.47;;
67227;SDS011;54139;42.616;23.748;2023-03-14T15:40:40;3.85;;;3.28;;